Time;durP1;ratioP1;P1;durP2;ratioP2;P2;SDS_P1;SDS_P2;PMS_P1;PMS_P2;Temp;Humidity;BMP_temperature;BMP_pressure;BME280_temperature;BME280_humidity;BME280_pressure;Samples;Min_cycle;Max_cycle;Signal;HPM_P1;HPM_P2
2021/05/29 00:02:21;;;;;;;4.57;2.80;;;13.30;63.70;;;;;;5082981;28;20617;-85
2021/05/29 00:04:50;;;;;;;2.40;2.20;;;13.20;64.70;;;;;;5078681;28;20625;-85
2021/05/29 00:07:18;;;;;;;2.50;2.30;;;13.10;64.40;;;;;;5078722;28;20668;-85
2021/05/29 00:09:47;;;;;;;2.20;2.10;;;13.10;64.90;;;;;;5074677;28;20683;-84
2021/05/29 00:12:17;;;;;;;3.13;2.53;;;13.10;65.80;;;;;;5079941;28;21216;-85
2021/05/29 00:14:47;;;;;;;3.23;2.97;;;13.10;66.50;;;;;;5080170;28;20747;-85
2021/05/29 00:17:13;;;;;;;2.03;1.87;;;13.10;67.10;;;;;;5088965;28;20986;-86
2021/05/29 00:19:40;;;;;;;2.20;2.10;;;13.00;67.50;;;;;;5076116;28;20751;-85
2021/05/29 00:22:07;;;;;;;2.20;2.00;;;13.00;67.50;;;;;;5087080;28;20662;-86
2021/05/29 00:24:34;;;;;;;2.60;2.40;;;13.00;67.90;;;;;;5081379;28;20629;-85
2021/05/29 00:27:00;;;;;;;2.70;2.50;;;13.00;68.20;;;;;;5087359;28;21444;-85
2021/05/29 00:29:27;;;;;;;2.67;2.47;;;12.90;68.10;;;;;;5083330;28;20617;-85
2021/05/29 00:31:53;;;;;;;3.40;3.10;;;12.90;68.60;;;;;;5082155;28;20621;-85
2021/05/29 00:34:20;;;;;;;4.60;2.70;;;13.00;68.20;;;;;;5075468;28;20630;-85
2021/05/29 00:36:46;;;;;;;2.70;2.37;;;13.20;65.90;;;;;;5081344;28;20619;-85
2021/05/29 00:39:13;;;;;;;5.63;2.37;;;13.30;65.60;;;;;;5078160;28;20770;-85
2021/05/29 00:41:40;;;;;;;2.40;2.20;;;13.30;66.10;;;;;;5071063;28;20610;-85
2021/05/29 00:44:06;;;;;;;2.90;2.60;;;13.30;64.00;;;;;;5084804;28;20644;-85
2021/05/29 00:46:33;;;;;;;2.50;2.30;;;13.40;62.60;;;;;;5078860;28;20671;-85
2021/05/29 00:48:59;;;;;;;2.20;2.10;;;13.40;64.20;;;;;;5087206;28;20610;-85
2021/05/29 00:51:26;;;;;;;2.03;1.87;;;13.40;64.40;;;;;;5072502;28;20692;-84
2021/05/29 00:53:54;;;;;;;2.33;2.23;;;13.40;63.90;;;;;;5082227;28;20732;-84
2021/05/29 00:56:24;;;;;;;3.80;2.37;;;13.50;63.00;;;;;;5070187;28;21206;-85
2021/05/29 00:58:50;;;;;;;4.20;2.73;;;13.40;62.40;;;;;;5077980;28;20616;-85
2021/05/29 01:01:16;;;;;;;3.13;2.93;;;13.40;63.90;;;;;;5084941;28;20636;-85
2021/05/29 01:03:45;;;;;;;2.57;2.37;;;13.40;63.90;;;;;;5081615;28;20956;-82
2021/05/29 01:06:13;;;;;;;2.70;2.50;;;13.40;64.40;;;;;;5093475;28;20748;-83
2021/05/29 01:08:40;;;;;;;2.47;2.27;;;13.40;65.50;;;;;;5090195;28;20214;-83
2021/05/29 01:11:10;;;;;;;3.07;2.77;;;13.40;63.70;;;;;;5092743;28;20628;-83
2021/05/29 01:13:42;;;;;;;3.93;2.50;;;13.40;65.30;;;;;;5079482;28;21217;-83
2021/05/29 01:16:20;;;;;;;2.80;1.97;;;13.30;66.00;;;;;;5085271;28;20643;-83
2021/05/29 01:18:48;;;;;;;2.00;1.90;;;13.20;65.50;;;;;;5084076;28;20620;-83
2021/05/29 01:21:16;;;;;;;2.70;2.50;;;13.20;64.80;;;;;;5073313;28;20637;-83
2021/05/29 01:23:47;;;;;;;2.50;2.30;;;12.90;66.20;;;;;;5085038;28;20632;-83
2021/05/29 01:26:17;;;;;;;1.80;1.70;;;12.90;67.20;;;;;;5074173;28;20645;-84
2021/05/29 01:28:45;;;;;;;2.67;2.03;;;12.80;67.50;;;;;;5077243;28;21583;-84
2021/05/29 01:31:14;;;;;;;2.30;2.10;;;12.80;68.30;;;;;;5079037;28;20690;-83
2021/05/29 01:33:44;;;;;;;2.40;2.20;;;12.70;68.30;;;;;;5078088;28;21233;-83
2021/05/29 01:36:12;;;;;;;2.67;2.47;;;12.60;69.10;;;;;;5091375;28;20656;-83
2021/05/29 01:38:55;;;;;;;2.73;2.53;;;12.60;69.60;;;;;;5076248;28;20632;-84
2021/05/29 01:41:24;;;;;;;2.50;2.10;;;12.60;70.10;;;;;;5073232;28;20617;-83
2021/05/29 01:43:52;;;;;;;2.93;2.27;;;12.60;69.80;;;;;;5075715;28;20644;-83
2021/05/29 01:46:22;;;;;;;2.63;2.43;;;12.50;69.40;;;;;;5074770;28;20684;-83
2021/05/29 01:48:55;;;;;;;2.60;2.40;;;12.50;70.30;;;;;;5081396;28;20616;-83
2021/05/29 01:51:33;;;;;;;3.20;2.90;;;12.40;69.30;;;;;;5073293;28;20624;-83
2021/05/29 01:54:07;;;;;;;3.60;3.17;;;12.50;70.50;;;;;;5086572;28;21260;-84
2021/05/29 01:56:38;;;;;;;3.53;3.10;;;12.60;70.20;;;;;;5087746;28;20631;-83
2021/05/29 01:59:06;;;;;;;2.53;2.40;;;12.50;69.90;;;;;;5082555;28;20632;-83
2021/05/29 02:01:34;;;;;;;4.10;3.53;;;12.50;70.90;;;;;;5080173;28;20646;-83
2021/05/29 02:04:04;;;;;;;3.57;3.27;;;12.60;70.70;;;;;;5083760;28;20633;-83
2021/05/29 02:06:31;;;;;;;4.20;3.70;;;12.50;70.10;;;;;;5078958;28;20652;-84
2021/05/29 02:09:00;;;;;;;3.90;3.60;;;12.40;70.30;;;;;;5086012;28;20629;-85
2021/05/29 02:11:31;;;;;;;4.07;3.70;;;12.40;71.20;;;;;;5081672;28;22524;-83
2021/05/29 02:13:59;;;;;;;4.20;3.80;;;12.40;71.50;;;;;;5082562;28;20732;-83
2021/05/29 02:16:30;;;;;;;4.10;3.80;;;12.40;72.30;;;;;;5079763;28;20643;-83
2021/05/29 02:18:59;;;;;;;3.83;3.40;;;12.40;72.20;;;;;;5090164;28;20624;-83
2021/05/29 02:21:29;;;;;;;5.63;4.10;;;12.20;72.80;;;;;;5090987;28;20633;-83
2021/05/29 02:23:59;;;;;;;4.17;3.63;;;12.10;72.80;;;;;;5083495;28;20731;-83
2021/05/29 02:26:32;;;;;;;3.60;3.30;;;12.20;73.00;;;;;;5072147;28;20649;-83
2021/05/29 02:29:03;;;;;;;4.87;4.00;;;12.20;73.40;;;;;;5081937;28;21666;-83
2021/05/29 02:31:34;;;;;;;4.07;3.67;;;12.30;73.30;;;;;;5076889;28;20668;-82
2021/05/29 02:34:04;;;;;;;3.83;3.53;;;12.30;73.40;;;;;;5083228;28;20741;-83
2021/05/29 02:36:36;;;;;;;4.03;3.63;;;12.30;73.10;;;;;;5077514;28;20651;-83
2021/05/29 02:39:06;;;;;;;4.25;3.85;;;12.40;73.10;;;;;;5084477;28;20690;-83
2021/05/29 02:41:37;;;;;;;3.30;3.07;;;12.20;74.20;;;;;;5086445;28;20191;-82
2021/05/29 02:44:07;;;;;;;5.40;3.63;;;12.10;74.90;;;;;;5073162;28;20633;-83
2021/05/29 02:46:41;;;;;;;3.70;3.40;;;12.10;75.50;;;;;;5076277;28;21583;-82
2021/05/29 02:49:11;;;;;;;5.13;3.83;;;12.20;75.80;;;;;;5082220;28;20624;-83
2021/05/29 02:51:42;;;;;;;4.90;4.13;;;12.10;76.70;;;;;;5072471;28;20747;-83
2021/05/29 02:54:20;;;;;;;4.00;3.70;;;12.20;76.10;;;;;;5082420;28;21196;-82
2021/05/29 02:56:56;;;;;;;4.10;3.80;;;12.20;75.60;;;;;;5089997;28;20647;-82
2021/05/29 02:59:42;;;;;;;4.30;3.90;;;12.00;75.60;;;;;;5085259;28;20674;-83
2021/05/29 03:02:24;;;;;;;4.13;3.83;;;11.80;76.40;;;;;;5072220;28;21218;-82
2021/05/29 03:04:53;;;;;;;3.97;3.67;;;11.70;77.20;;;;;;5081919;28;20653;-83
2021/05/29 03:07:22;;;;;;;4.47;4.07;;;11.60;77.90;;;;;;5075691;28;20683;-82
2021/05/29 03:09:49;;;;;;;4.43;3.60;;;11.70;78.20;;;;;;5085919;28;20652;-85
2021/05/29 03:12:17;;;;;;;6.97;4.07;;;11.70;77.50;;;;;;5077890;28;20630;-83
2021/05/29 03:14:43;;;;;;;4.33;3.87;;;11.70;77.20;;;;;;5081788;28;20641;-82
2021/05/29 03:17:10;;;;;;;3.70;3.40;;;11.70;78.20;;;;;;5072396;28;20633;-83
2021/05/29 03:19:38;;;;;;;4.00;3.70;;;11.60;77.90;;;;;;5085727;28;20735;-83
2021/05/29 03:22:05;;;;;;;3.80;3.50;;;11.60;78.20;;;;;;5075386;28;20669;-83
2021/05/29 03:24:32;;;;;;;4.73;4.23;;;11.60;77.80;;;;;;5071183;28;20636;-83
2021/05/29 03:26:59;;;;;;;3.67;3.37;;;11.60;78.20;;;;;;5071118;28;20661;-83
2021/05/29 03:29:27;;;;;;;3.90;3.50;;;11.70;77.40;;;;;;5070876;28;20633;-83
2021/05/29 03:31:54;;;;;;;5.10;4.30;;;11.70;78.30;;;;;;5076207;28;21315;-83
2021/05/29 03:34:22;;;;;;;4.37;3.97;;;11.70;78.20;;;;;;5072677;28;21035;-82
2021/05/29 03:36:50;;;;;;;5.00;4.50;;;11.70;78.60;;;;;;5071571;28;20622;-82
2021/05/29 03:39:17;;;;;;;4.50;4.20;;;11.70;78.50;;;;;;5071480;28;20647;-83
2021/05/29 03:41:45;;;;;;;4.33;3.70;;;11.70;78.30;;;;;;5070486;28;21269;-83
2021/05/29 03:44:13;;;;;;;4.60;4.20;;;11.80;78.60;;;;;;5070973;28;20678;-82
2021/05/29 03:46:43;;;;;;;5.10;4.30;;;11.80;78.50;;;;;;5070100;28;20649;-83
2021/05/29 03:49:19;;;;;;;4.90;4.40;;;11.80;78.60;;;;;;5073990;28;20656;-83
2021/05/29 03:51:47;;;;;;;5.63;4.90;;;11.80;79.30;;;;;;5073097;28;20632;-83
2021/05/29 03:54:17;;;;;;;5.83;5.23;;;11.80;79.40;;;;;;5081055;28;20685;-82
2021/05/29 03:56:46;;;;;;;4.10;3.80;;;11.80;79.20;;;;;;5080617;28;20662;-82
2021/05/29 03:59:15;;;;;;;9.27;4.77;;;11.90;80.10;;;;;;5081711;28;21048;-82
2021/05/29 04:01:43;;;;;;;4.80;4.40;;;12.00;79.80;;;;;;5072914;28;20635;-83
2021/05/29 04:04:11;;;;;;;5.70;4.23;;;12.00;80.30;;;;;;5075976;28;20632;-82
2021/05/29 04:06:38;;;;;;;4.40;4.10;;;12.00;80.70;;;;;;5090066;28;20648;-82
2021/05/29 04:09:07;;;;;;;4.80;4.40;;;12.00;80.00;;;;;;5079674;28;20666;-83
2021/05/29 04:11:35;;;;;;;5.30;4.70;;;11.90;80.00;;;;;;5079054;28;20626;-84
2021/05/29 04:14:02;;;;;;;4.23;3.93;;;11.90;80.30;;;;;;5086480;28;21061;-82
2021/05/29 04:16:30;;;;;;;5.73;4.17;;;12.00;80.60;;;;;;5069845;28;20640;-82
2021/05/29 04:18:58;;;;;;;5.93;5.10;;;12.10;80.50;;;;;;5075914;28;21188;-82
2021/05/29 04:21:27;;;;;;;5.03;4.50;;;12.00;80.40;;;;;;5069904;28;20756;-82
2021/05/29 04:23:55;;;;;;;5.33;4.50;;;12.00;80.10;;;;;;5082133;28;20617;-82
2021/05/29 04:26:23;;;;;;;4.50;4.10;;;12.10;80.40;;;;;;5070773;28;21085;-82
2021/05/29 04:28:50;;;;;;;5.90;4.97;;;12.20;80.10;;;;;;5080939;28;21192;-82
2021/05/29 04:31:17;;;;;;;4.47;4.07;;;12.30;79.40;;;;;;5083273;28;20640;-82
2021/05/29 04:33:43;;;;;;;4.93;4.50;;;12.20;79.50;;;;;;5075202;28;20678;-82
2021/05/29 04:36:11;;;;;;;4.80;4.40;;;12.20;79.50;;;;;;5085786;28;20618;-82
2021/05/29 04:38:37;;;;;;;8.63;4.20;;;12.10;79.40;;;;;;5078779;28;20624;-82
2021/05/29 04:41:04;;;;;;;5.13;4.60;;;12.10;79.10;;;;;;5073459;28;20636;-81
2021/05/29 04:43:30;;;;;;;4.20;3.90;;;12.00;79.00;;;;;;5083441;28;20681;-81
2021/05/29 04:45:57;;;;;;;4.60;4.20;;;11.80;80.20;;;;;;5069870;28;20621;-82
2021/05/29 04:48:25;;;;;;;4.80;4.40;;;11.80;80.90;;;;;;5073624;28;20690;-82
2021/05/29 04:53:38;;;;;;;4.83;4.30;;;12.00;81.40;;;;;;5081882;28;20987;-85
2021/05/29 04:56:05;;;;;;;4.83;4.40;;;12.00;80.60;;;;;;5089900;28;20624;-85
2021/05/29 04:58:43;;;;;;;4.70;4.20;;;12.00;81.00;;;;;;5077266;28;21016;-85
2021/05/29 05:01:13;;;;;;;5.60;5.10;;;12.00;80.80;;;;;;5068429;28;20621;-82
2021/05/29 05:03:41;;;;;;;4.60;4.20;;;12.20;80.30;;;;;;5073888;28;21219;-83
2021/05/29 05:06:11;;;;;;;3.50;3.30;;;12.60;78.80;;;;;;5071301;28;20613;-84
2021/05/29 05:08:40;;;;;;;3.63;3.23;;;12.90;78.10;;;;;;5089239;28;20617;-83
2021/05/29 05:11:08;;;;;;;3.43;3.13;;;13.00;76.10;;;;;;5087518;28;21021;-83
2021/05/29 05:13:35;;;;;;;3.10;2.80;;;13.30;71.80;;;;;;5076822;28;20613;-84
2021/05/29 05:16:05;;;;;;;2.33;2.23;;;13.40;70.60;;;;;;5086137;28;20669;-82
2021/05/29 05:18:34;;;;;;;2.63;2.43;;;13.40;70.40;;;;;;5077337;28;20617;-83
2021/05/29 05:21:07;;;;;;;3.03;2.83;;;13.60;67.70;;;;;;5086247;28;20635;-83
2021/05/29 05:23:38;;;;;;;2.30;2.10;;;13.70;67.80;;;;;;5076875;28;20628;-83
2021/05/29 05:26:07;;;;;;;3.10;2.30;;;13.70;67.70;;;;;;5088688;28;20731;-83
2021/05/29 05:28:34;;;;;;;2.43;2.23;;;13.90;67.30;;;;;;5083259;28;20620;-83
2021/05/29 05:31:03;;;;;;;2.77;2.57;;;13.80;66.90;;;;;;5081701;28;20671;-83
2021/05/29 05:33:31;;;;;;;2.27;1.90;;;14.00;66.20;;;;;;5081170;28;21158;-83
2021/05/29 05:35:57;;;;;;;6.13;2.00;;;14.00;65.80;;;;;;5080457;28;20610;-83
2021/05/29 05:38:24;;;;;;;3.27;2.23;;;14.20;65.30;;;;;;5072942;28;20621;-83
2021/05/29 05:40:52;;;;;;;5.00;2.20;;;14.30;64.90;;;;;;5089280;28;21113;-83
2021/05/29 05:43:19;;;;;;;2.87;2.60;;;14.40;65.50;;;;;;5081714;28;20647;-83
2021/05/29 05:45:45;;;;;;;3.23;2.43;;;14.60;64.80;;;;;;5068666;28;20687;-82
2021/05/29 05:48:12;;;;;;;2.77;2.37;;;14.70;64.50;;;;;;5078956;28;20653;-83
2021/05/29 05:50:51;;;;;;;2.40;2.20;;;14.80;64.20;;;;;;5079957;28;20690;-83
2021/05/29 05:53:18;;;;;;;2.33;2.13;;;14.90;60.90;;;;;;5090316;28;21530;-83
2021/05/29 05:55:45;;;;;;;2.60;2.30;;;15.00;61.00;;;;;;5072503;28;21389;-84
2021/05/29 05:58:11;;;;;;;2.53;2.20;;;15.10;61.60;;;;;;5075356;28;20642;-83
2021/05/29 06:00:39;;;;;;;2.50;2.30;;;15.10;60.70;;;;;;5082222;28;20620;-83
2021/05/29 06:03:05;;;;;;;2.80;1.93;;;15.10;60.00;;;;;;5086578;28;20631;-83
2021/05/29 06:05:37;;;;;;;2.67;2.47;;;15.30;60.90;;;;;;5072472;28;20625;-84
2021/05/29 06:08:06;;;;;;;2.17;2.00;;;15.40;60.90;;;;;;5082180;28;20768;-83
2021/05/29 06:10:35;;;;;;;2.30;2.10;;;15.50;59.70;;;;;;5090354;28;21085;-83
2021/05/29 06:13:04;;;;;;;2.20;2.03;;;15.40;59.60;;;;;;5081792;28;20730;-84
2021/05/29 06:18:43;;;;;;;6.70;3.93;;;15.50;59.50;;;;;;5081868;28;20617;-84
2021/05/29 06:21:10;;;;;;;2.93;2.70;;;15.50;59.50;;;;;;5073956;28;20678;-83
2021/05/29 06:23:36;;;;;;;2.90;2.30;;;15.50;59.20;;;;;;5084497;28;20726;-84
2021/05/29 06:26:03;;;;;;;3.07;2.40;;;15.50;60.10;;;;;;5089434;28;20671;-84
2021/05/29 06:28:29;;;;;;;2.80;2.60;;;15.60;59.90;;;;;;5083314;28;21002;-84
2021/05/29 06:30:56;;;;;;;2.87;2.57;;;15.70;59.30;;;;;;5081973;28;21207;-84
2021/05/29 06:33:23;;;;;;;3.23;2.53;;;15.70;58.60;;;;;;5087132;28;20640;-84
2021/05/29 06:35:50;;;;;;;2.53;2.33;;;15.80;58.70;;;;;;5065884;28;21448;-83
2021/05/29 06:38:16;;;;;;;10.37;3.17;;;15.80;59.10;;;;;;5081242;28;20682;-83
2021/05/29 06:40:43;;;;;;;6.23;2.67;;;15.90;57.60;;;;;;5078665;28;20623;-84
2021/05/29 06:43:09;;;;;;;4.83;2.80;;;16.00;58.80;;;;;;5072171;28;20625;-83
2021/05/29 06:45:36;;;;;;;2.93;2.73;;;16.00;57.90;;;;;;5071303;28;20613;-84
2021/05/29 06:48:03;;;;;;;3.70;2.47;;;16.10;58.50;;;;;;5079664;28;20672;-84
2021/05/29 06:50:31;;;;;;;3.00;2.70;;;16.10;58.10;;;;;;5090849;28;20628;-83
2021/05/29 06:52:59;;;;;;;3.50;3.00;;;16.20;58.20;;;;;;5081842;28;21161;-83
2021/05/29 07:00:52;;;;;;;3.33;2.50;;;16.20;57.60;;;;;;5071962;28;20626;-85
2021/05/29 07:03:18;;;;;;;3.57;2.77;;;16.30;57.70;;;;;;5086789;28;20735;-85
2021/05/29 07:05:45;;;;;;;2.60;2.40;;;16.50;57.90;;;;;;5073645;28;20628;-85
2021/05/29 07:08:12;;;;;;;2.67;2.07;;;16.50;57.20;;;;;;5083545;28;20657;-85
2021/05/29 07:10:38;;;;;;;2.72;2.53;;;16.60;57.10;;;;;;5071220;28;20780;-84
2021/05/29 07:13:05;;;;;;;8.30;3.13;;;16.70;56.60;;;;;;5077237;28;20209;-83
2021/05/29 07:15:35;;;;;;;3.03;2.30;;;16.70;56.10;;;;;;5082540;28;20620;-85
2021/05/29 07:18:06;;;;;;;2.57;2.37;;;16.70;56.80;;;;;;5086915;28;21055;-84
2021/05/29 07:20:33;;;;;;;2.93;2.53;;;16.70;56.40;;;;;;5067266;28;20653;-85
2021/05/29 07:23:00;;;;;;;4.43;3.17;;;16.90;56.70;;;;;;5083383;28;20617;-84
2021/05/29 07:25:27;;;;;;;3.20;2.90;;;17.10;55.70;;;;;;5086775;28;20779;-84
2021/05/29 07:27:54;;;;;;;2.93;2.60;;;17.10;56.50;;;;;;5085250;28;20659;-84
2021/05/29 07:30:22;;;;;;;2.80;2.60;;;16.80;56.90;;;;;;5070713;28;20629;-84
2021/05/29 07:32:49;;;;;;;3.33;2.40;;;16.70;56.70;;;;;;5074516;28;20625;-84
2021/05/29 07:35:15;;;;;;;2.43;2.23;;;16.80;56.50;;;;;;5082692;28;21158;-84
2021/05/29 07:37:42;;;;;;;3.77;2.47;;;17.00;56.30;;;;;;5074663;28;20610;-84
2021/05/29 07:40:10;;;;;;;2.80;2.60;;;17.00;55.10;;;;;;5087522;28;20598;-84
2021/05/29 07:42:37;;;;;;;2.67;2.47;;;17.20;55.90;;;;;;5076768;28;20617;-84
2021/05/29 07:45:06;;;;;;;2.47;2.30;;;17.40;55.50;;;;;;5072659;28;20997;-84
2021/05/29 07:47:33;;;;;;;2.37;2.17;;;17.30;53.50;;;;;;5077872;28;20664;-84
2021/05/29 07:50:00;;;;;;;4.50;2.47;;;17.40;53.80;;;;;;5074190;28;20637;-84
2021/05/29 07:52:27;;;;;;;2.30;2.10;;;17.60;54.20;;;;;;5076784;28;20617;-83
2021/05/29 07:54:53;;;;;;;2.33;2.13;;;17.70;52.70;;;;;;5076524;28;20626;-85
2021/05/29 07:57:20;;;;;;;2.00;1.90;;;17.60;52.10;;;;;;5075502;28;20633;-84
2021/05/29 07:59:47;;;;;;;3.70;2.23;;;17.80;51.80;;;;;;5079073;28;20993;-82
2021/05/29 08:02:13;;;;;;;1.93;1.83;;;17.80;52.20;;;;;;5075061;28;20632;-84
2021/05/29 08:04:40;;;;;;;4.10;2.17;;;17.90;52.10;;;;;;5076571;28;20999;-85
2021/05/29 08:07:06;;;;;;;3.57;2.50;;;17.90;52.10;;;;;;5079586;28;20645;-85
2021/05/29 08:09:33;;;;;;;2.30;2.10;;;18.10;52.60;;;;;;5072621;28;20656;-85
2021/05/29 08:12:00;;;;;;;4.20;2.47;;;18.20;52.00;;;;;;5078652;28;20728;-85
2021/05/29 08:14:29;;;;;;;1.70;1.60;;;18.30;52.50;;;;;;5075837;28;20692;-81
2021/05/29 08:16:58;;;;;;;2.10;1.90;;;18.40;52.20;;;;;;5077702;28;20668;-85
2021/05/29 08:19:26;;;;;;;11.40;1.80;;;18.40;50.60;;;;;;5086583;28;20965;-86
2021/05/29 08:21:52;;;;;;;2.03;1.93;;;18.50;50.60;;;;;;5084427;28;20629;-86
2021/05/29 08:24:19;;;;;;;2.13;1.93;;;18.60;49.80;;;;;;5081645;28;20666;-86
2021/05/29 08:26:45;;;;;;;2.40;2.20;;;18.60;50.20;;;;;;5078300;28;20835;-86
2021/05/29 08:29:14;;;;;;;1.93;1.83;;;18.50;50.30;;;;;;5072246;28;20658;-86
2021/05/29 08:31:43;;;;;;;2.03;1.80;;;18.60;50.10;;;;;;5073566;28;20622;-86
2021/05/29 08:34:10;;;;;;;1.97;1.87;;;18.70;49.20;;;;;;5081038;28;20630;-85
2021/05/29 08:36:38;;;;;;;2.23;2.00;;;18.70;49.40;;;;;;5083727;28;20635;-85
2021/05/29 08:39:06;;;;;;;1.80;1.70;;;18.70;50.60;;;;;;5075882;28;21244;-86
2021/05/29 08:41:33;;;;;;;2.63;2.13;;;18.60;51.00;;;;;;5070960;28;20628;-86
2021/05/29 08:43:59;;;;;;;2.63;1.75;;;18.20;49.70;;;;;;5086184;28;20767;-86
2021/05/29 08:46:26;;;;;;;1.80;1.70;;;18.40;50.60;;;;;;5075442;28;20203;-85
2021/05/29 08:48:55;;;;;;;2.50;2.07;;;17.70;50.10;;;;;;5077427;28;20712;-85
2021/05/29 08:51:22;;;;;;;2.00;1.87;;;18.10;50.00;;;;;;5084369;28;20633;-86
2021/05/29 08:53:50;;;;;;;2.43;2.30;;;18.40;50.30;;;;;;5075592;28;20613;-85
2021/05/29 08:56:18;;;;;;;2.63;2.40;;;18.50;49.90;;;;;;5079777;28;20625;-85
2021/05/29 08:58:46;;;;;;;2.50;2.30;;;18.60;49.90;;;;;;5078257;28;21030;-85
2021/05/29 09:01:14;;;;;;;7.83;2.03;;;18.70;49.60;;;;;;5099537;28;20654;-86
2021/05/29 09:03:48;;;;;;;2.20;2.10;;;18.90;50.40;;;;;;5092657;28;20702;-84
2021/05/29 09:06:18;;;;;;;2.30;2.20;;;18.90;49.70;;;;;;5087939;28;20617;-87
2021/05/29 09:08:53;;;;;;;2.70;2.50;;;18.70;50.80;;;;;;5077881;28;20631;-85
2021/05/29 09:11:46;;;;;;;2.20;2.10;;;18.90;49.10;;;;;;5076892;28;20624;-85
2021/05/29 09:14:37;;;;;;;2.67;2.17;;;19.00;50.40;;;;;;5083637;28;20977;-85
2021/05/29 09:17:22;;;;;;;2.73;2.30;;;18.90;51.00;;;;;;5084267;28;20642;-86
2021/05/29 09:20:10;;;;;;;2.73;2.30;;;19.10;50.80;;;;;;5076203;28;20642;-86
2021/05/29 09:22:39;;;;;;;2.53;2.33;;;19.30;49.20;;;;;;5079942;28;20679;-87
2021/05/29 09:25:12;;;;;;;2.07;1.97;;;19.20;49.90;;;;;;5082088;28;20647;-86
2021/05/29 09:27:51;;;;;;;2.43;2.23;;;19.10;48.80;;;;;;5090794;28;21014;-86
2021/05/29 09:30:33;;;;;;;2.50;2.30;;;18.70;49.00;;;;;;5087119;28;20619;-86
2021/05/29 09:33:14;;;;;;;2.40;2.20;;;18.00;48.80;;;;;;5072326;28;20636;-85
2021/05/29 09:35:41;;;;;;;2.57;2.37;;;18.30;49.00;;;;;;5072140;28;21207;-86
2021/05/29 09:38:09;;;;;;;2.00;1.90;;;18.40;49.30;;;;;;5077912;28;20627;-85
2021/05/29 09:40:36;;;;;;;2.30;2.10;;;18.20;49.30;;;;;;5088214;28;20651;-86
2021/05/29 09:43:05;;;;;;;2.20;2.10;;;18.10;47.30;;;;;;5092955;28;20619;-86
2021/05/29 09:45:32;;;;;;;1.80;1.70;;;18.30;48.60;;;;;;5077830;28;20618;-86
2021/05/29 09:48:16;;;;;;;2.90;2.40;;;18.40;48.90;;;;;;5073431;28;20661;-86
2021/05/29 09:51:08;;;;;;;2.00;1.87;;;18.30;48.80;;;;;;5083569;28;20625;-86
2021/05/29 09:53:38;;;;;;;2.37;2.00;;;18.50;48.00;;;;;;5074188;28;21161;-86
2021/05/29 09:56:06;;;;;;;2.20;2.00;;;18.60;48.00;;;;;;5082881;28;21196;-86
2021/05/29 09:58:58;;;;;;;3.87;2.70;;;18.90;48.30;;;;;;5088850;28;20618;-86
2021/05/29 10:01:50;;;;;;;2.07;1.90;;;19.30;48.00;;;;;;5083756;28;20984;-86
2021/05/29 10:04:35;;;;;;;2.70;2.50;;;19.80;48.40;;;;;;5067056;28;20720;-85
2021/05/29 10:07:03;;;;;;;2.33;2.10;;;20.00;49.30;;;;;;5077424;28;20687;-86
2021/05/29 10:09:33;;;;;;;2.80;2.60;;;19.60;48.50;;;;;;5087306;28;20689;-85
2021/05/29 10:12:00;;;;;;;2.67;2.47;;;19.20;47.90;;;;;;5081570;28;21105;-86
2021/05/29 10:14:29;;;;;;;3.23;2.20;;;19.20;49.90;;;;;;5074768;28;20632;-86
2021/05/29 10:16:58;;;;;;;2.87;2.73;;;19.50;50.50;;;;;;5086494;28;20723;-86
2021/05/29 10:19:25;;;;;;;4.00;3.20;;;19.90;50.90;;;;;;5078056;28;20669;-87
2021/05/29 10:21:53;;;;;;;5.67;2.83;;;20.20;49.40;;;;;;5102032;28;20650;-86
2021/05/29 10:24:21;;;;;;;3.17;2.87;;;20.00;48.90;;;;;;5095568;28;20677;-86
2021/05/29 10:26:49;;;;;;;3.37;3.07;;;19.80;48.80;;;;;;5091331;28;21214;-85
2021/05/29 10:29:17;;;;;;;2.30;2.13;;;20.00;49.80;;;;;;5078752;28;20628;-85
2021/05/29 10:31:44;;;;;;;2.33;2.13;;;20.40;49.70;;;;;;5090934;28;20715;-86
2021/05/29 10:34:10;;;;;;;3.10;2.90;;;20.20;49.10;;;;;;5083420;28;20632;-86
2021/05/29 10:36:43;;;;;;;2.80;2.60;;;20.20;50.10;;;;;;5088849;28;20617;-87
2021/05/29 10:39:11;;;;;;;2.30;2.13;;;20.20;49.90;;;;;;5077002;28;20633;-86
2021/05/29 10:41:55;;;;;;;2.83;2.63;;;20.20;49.80;;;;;;5077879;28;21222;-86
2021/05/29 10:44:34;;;;;;;3.50;3.20;;;20.70;50.00;;;;;;5076312;28;20631;-83
2021/05/29 10:47:07;;;;;;;2.97;2.37;;;21.20;49.30;;;;;;5087911;28;20672;-86
2021/05/29 10:49:54;;;;;;;2.37;2.17;;;21.50;48.60;;;;;;5077313;28;20629;-86
2021/05/29 10:52:51;;;;;;;2.30;1.87;;;21.30;47.40;;;;;;5090995;28;21024;-87
2021/05/29 10:55:25;;;;;;;1.70;1.60;;;20.40;46.10;;;;;;5068209;28;21023;-86
2021/05/29 10:58:08;;;;;;;1.97;1.87;;;20.20;47.30;;;;;;5071617;28;20608;-85
2021/05/29 11:00:58;;;;;;;2.00;1.90;;;20.60;47.10;;;;;;5088256;28;20640;-86
2021/05/29 11:03:29;;;;;;;2.00;1.90;;;21.10;46.70;;;;;;5089851;28;20732;-86
2021/05/29 11:05:59;;;;;;;2.10;2.00;;;21.40;47.50;;;;;;5089007;28;20612;-86
2021/05/29 11:08:46;;;;;;;2.00;1.80;;;21.50;46.60;;;;;;5079082;28;20688;-86
2021/05/29 11:11:50;;;;;;;1.70;1.60;;;21.60;45.30;;;;;;5074392;28;20728;-85
2021/05/29 11:14:19;;;;;;;2.00;1.90;;;20.90;45.20;;;;;;5079642;28;20683;-85
2021/05/29 11:17:11;;;;;;;2.27;1.80;;;20.40;45.40;;;;;;5083677;28;20632;-87
2021/05/29 11:19:39;;;;;;;1.80;1.70;;;20.30;45.10;;;;;;5072237;28;20625;-86
2021/05/29 11:22:08;;;;;;;1.90;1.80;;;20.40;46.30;;;;;;5090883;28;20628;-85
2021/05/29 11:24:39;;;;;;;2.00;1.80;;;20.40;45.00;;;;;;5071692;28;20664;-85
2021/05/29 11:27:07;;;;;;;1.60;1.50;;;20.20;43.60;;;;;;5074848;28;20650;-86
2021/05/29 11:29:52;;;;;;;1.73;1.63;;;20.80;44.70;;;;;;5077278;28;20639;-86
2021/05/29 11:32:41;;;;;;;1.70;1.60;;;20.80;43.40;;;;;;5087571;28;21537;-87
2021/05/29 11:35:17;;;;;;;2.03;1.73;;;21.20;44.30;;;;;;5073811;28;20618;-87
2021/05/29 11:37:58;;;;;;;2.03;1.60;;;21.20;43.80;;;;;;5078466;28;20976;-86
2021/05/29 11:40:58;;;;;;;1.73;1.63;;;21.20;43.80;;;;;;5072963;28;20664;-86
2021/05/29 11:43:36;;;;;;;2.43;1.10;;;22.10;42.10;;;;;;5086585;28;20652;-87
2021/05/29 11:46:07;;;;;;;1.80;1.70;;;23.10;42.00;;;;;;5070146;28;20677;-88
2021/05/29 11:48:37;;;;;;;1.57;1.30;;;23.40;41.30;;;;;;5079003;28;20691;-87
2021/05/29 11:51:10;;;;;;;1.47;1.37;;;23.50;40.30;;;;;;5089285;28;21173;-86
2021/05/29 11:53:42;;;;;;;2.23;1.07;;;22.60;37.70;;;;;;5077770;28;20679;-87
2021/05/29 11:56:10;;;;;;;0.97;0.97;;;24.30;40.90;;;;;;5071439;28;20965;-87
2021/05/29 11:58:48;;;;;;;0.90;0.90;;;25.90;37.90;;;;;;5079026;28;20632;-86
2021/05/29 12:01:17;;;;;;;1.20;1.10;;;25.20;38.40;;;;;;5083731;28;20679;-87
2021/05/29 12:03:49;;;;;;;1.23;1.13;;;27.10;36.70;;;;;;5080866;28;21561;-88
2021/05/29 12:06:38;;;;;;;1.33;1.20;;;29.40;34.90;;;;;;5089989;28;20612;-87
2021/05/29 12:09:07;;;;;;;1.55;1.10;;;29.40;32.50;;;;;;5086465;28;21100;-87
2021/05/29 12:11:36;;;;;;;2.43;1.77;;;28.50;32.80;;;;;;5088458;28;20252;-87
2021/05/29 12:14:06;;;;;;;1.63;1.53;;;30.10;33.40;;;;;;5083101;28;20676;-88
2021/05/29 12:16:35;;;;;;;1.93;1.73;;;31.20;31.60;;;;;;5086642;28;20609;-89
2021/05/29 12:19:05;;;;;;;1.00;1.00;;;31.60;29.10;;;;;;5071715;28;20652;-88
2021/05/29 12:21:50;;;;;;;1.00;1.00;;;30.90;30.20;;;;;;5067818;28;20675;-84
2021/05/29 12:24:17;;;;;;;0.80;0.80;;;33.20;28.00;;;;;;5076967;28;20638;-88
2021/05/29 12:26:45;;;;;;;1.00;1.00;;;33.70;28.60;;;;;;5068868;28;20614;-89
2021/05/29 12:29:13;;;;;;;1.27;1.17;;;34.60;27.30;;;;;;5069069;28;21001;-89
2021/05/29 12:31:49;;;;;;;2.30;0.80;;;35.10;26.80;;;;;;5070078;28;20641;-88
2021/05/29 12:34:16;;;;;;;1.07;0.97;;;34.20;27.20;;;;;;5075926;28;20686;-88
2021/05/29 12:37:08;;;;;;;0.80;0.80;;;32.70;26.80;;;;;;5073112;28;21288;-89
2021/05/29 12:39:54;;;;;;;1.23;1.13;;;33.00;27.10;;;;;;5073463;28;20635;-88
2021/05/29 12:42:42;;;;;;;0.77;0.77;;;33.90;26.80;;;;;;5078055;28;20620;-89
2021/05/29 12:45:16;;;;;;;1.00;0.97;;;34.00;26.80;;;;;;5078062;28;20625;-89
2021/05/29 12:47:53;;;;;;;0.80;0.80;;;34.70;26.70;;;;;;5078458;28;20725;-89
2021/05/29 12:50:22;;;;;;;0.83;0.77;;;34.00;26.70;;;;;;5069749;28;20620;-89
2021/05/29 12:52:49;;;;;;;1.00;1.00;;;32.90;27.70;;;;;;5072698;28;20677;-88
2021/05/29 12:55:20;;;;;;;0.83;0.80;;;32.50;28.60;;;;;;5088957;28;20621;-88
2021/05/29 12:57:47;;;;;;;0.87;0.87;;;33.70;28.00;;;;;;5089238;28;21101;-89
2021/05/29 13:00:32;;;;;;;1.97;0.90;;;34.00;27.10;;;;;;5071523;28;20978;-88
2021/05/29 13:09:08;;;;;;;0.63;0.63;;;32.50;26.40;;;;;;5073654;28;20665;-89
2021/05/29 13:11:36;;;;;;;1.17;1.07;;;33.30;28.20;;;;;;5072739;28;21397;-89
2021/05/29 13:14:06;;;;;;;1.20;1.10;;;31.20;28.40;;;;;;5083151;28;20628;-88
2021/05/29 13:16:48;;;;;;;2.10;1.00;;;29.20;29.10;;;;;;5093615;28;20644;-88
2021/05/29 13:19:21;;;;;;;1.60;1.50;;;28.50;30.20;;;;;;5094012;28;20751;-88
2021/05/29 13:21:51;;;;;;;1.50;1.40;;;27.80;30.70;;;;;;5093648;28;20619;-88
2021/05/29 13:24:46;;;;;;;1.03;1.03;;;27.50;31.10;;;;;;5079994;28;20605;-84